sensor_id;sensor_type;location;lat;lon;timestamp;temperature;humidity
18712;DHT22;9485;49.386;8.674;2024-03-23T00:54:52;17.20;59.20
18712;DHT22;9485;49.386;8.674;2024-03-23T01:00:15;17.20;59.10
18712;DHT22;9485;49.386;8.674;2024-03-23T01:05:35;17.20;59.00
18712;DHT22;9485;49.386;8.674;2024-03-23T01:10:57;17.20;58.90
18712;DHT22;9485;49.386;8.674;2024-03-23T01:16:19;17.20;58.90
18712;DHT22;9485;49.386;8.674;2024-03-23T01:21:39;17.10;58.90
18712;DHT22;9485;49.386;8.674;2024-03-23T01:26:59;17.10;58.90
18712;DHT22;9485;49.386;8.674;2024-03-23T01:32:19;17.10;58.90
18712;DHT22;9485;49.386;8.674;2024-03-23T01:37:40;17.10;59.00
18712;DHT22;9485;49.386;8.674;2024-03-23T01:43:05;17.20;59.10
18712;DHT22;9485;49.386;8.674;2024-03-23T01:48:27;17.20;59.10
18712;DHT22;9485;49.386;8.674;2024-03-23T01:53:47;17.20;59.10
18712;DHT22;9485;49.386;8.674;2024-03-23T01:59:07;17.30;59.10
18712;DHT22;9485;49.386;8.674;2024-03-23T02:04:28;17.30;59.10
18712;DHT22;9485;49.386;8.674;2024-03-23T02:09:48;17.30;59.00
18712;DHT22;9485;49.386;8.674;2024-03-23T02:15:08;17.30;59.00
18712;DHT22;9485;49.386;8.674;2024-03-23T02:20:29;17.30;59.00
18712;DHT22;9485;49.386;8.674;2024-03-23T02:25:50;17.30;58.90
18712;DHT22;9485;49.386;8.674;2024-03-23T02:31:13;17.30;58.90
18712;DHT22;9485;49.386;8.674;2024-03-23T02:36:34;17.30;58.30
18712;DHT22;9485;49.386;8.674;2024-03-23T02:41:54;17.30;58.80
18712;DHT22;9485;49.386;8.674;2024-03-23T02:47:14;17.30;58.80
18712;DHT22;9485;49.386;8.674;2024-03-23T02:52:35;17.30;58.80
18712;DHT22;9485;49.386;8.674;2024-03-23T02:57:56;17.20;58.80
18712;DHT22;9485;49.386;8.674;2024-03-23T03:03:21;17.20;58.90
18712;DHT22;9485;49.386;8.674;2024-03-23T03:08:41;17.20;58.90
18712;DHT22;9485;49.386;8.674;2024-03-23T03:14:01;17.10;58.90
18712;DHT22;9485;49.386;8.674;2024-03-23T03:19:23;17.10;59.00
18712;DHT22;9485;49.386;8.674;2024-03-23T03:24:43;17.10;59.00
18712;DHT22;9485;49.386;8.674;2024-03-23T03:30:04;17.00;59.10
18712;DHT22;9485;49.386;8.674;2024-03-23T03:35:26;17.00;59.20
18712;DHT22;9485;49.386;8.674;2024-03-23T03:40:47;16.90;59.10
18712;DHT22;9485;49.386;8.674;2024-03-23T03:46:07;16.80;59.20
18712;DHT22;9485;49.386;8.674;2024-03-23T03:51:29;16.80;59.30
18712;DHT22;9485;49.386;8.674;2024-03-23T03:56:49;16.70;59.40
18712;DHT22;9485;49.386;8.674;2024-03-23T04:02:09;16.60;58.90
18712;DHT22;9485;49.386;8.674;2024-03-23T04:07:30;16.60;59.50
18712;DHT22;9485;49.386;8.674;2024-03-23T04:12:51;16.50;59.60
18712;DHT22;9485;49.386;8.674;2024-03-23T04:18:11;16.50;59.80
18712;DHT22;9485;49.386;8.674;2024-03-23T04:23:31;16.50;59.80
18712;DHT22;9485;49.386;8.674;2024-03-23T04:28:52;16.40;59.80
18712;DHT22;9485;49.386;8.674;2024-03-23T04:34:12;16.40;59.90
18712;DHT22;9485;49.386;8.674;2024-03-23T04:39:33;16.40;60.00
18712;DHT22;9485;49.386;8.674;2024-03-23T04:44:54;16.40;60.00
18712;DHT22;9485;49.386;8.674;2024-03-23T04:50:14;16.40;59.90
18712;DHT22;9485;49.386;8.674;2024-03-23T04:55:34;16.40;59.90
18712;DHT22;9485;49.386;8.674;2024-03-23T05:00:55;16.40;59.90
18712;DHT22;9485;49.386;8.674;2024-03-23T05:06:16;16.40;60.00
18712;DHT22;9485;49.386;8.674;2024-03-23T05:11:37;16.40;60.00
18712;DHT22;9485;49.386;8.674;2024-03-23T05:16:58;16.30;59.90
18712;DHT22;9485;49.386;8.674;2024-03-23T05:22:19;16.30;59.80
18712;DHT22;9485;49.386;8.674;2024-03-23T05:27:39;16.30;59.80
18712;DHT22;9485;49.386;8.674;2024-03-23T05:33:00;16.20;59.80
18712;DHT22;9485;49.386;8.674;2024-03-23T05:38:20;16.10;59.90
18712;DHT22;9485;49.386;8.674;2024-03-23T05:43:40;16.00;59.90
18712;DHT22;9485;49.386;8.674;2024-03-23T05:49:01;15.60;59.50
18712;DHT22;9485;49.386;8.674;2024-03-23T05:54:22;15.60;60.00
18712;DHT22;9485;49.386;8.674;2024-03-23T05:59:43;15.20;59.50
18712;DHT22;9485;49.386;8.674;2024-03-23T06:05:04;15.10;60.00
18712;DHT22;9485;49.386;8.674;2024-03-23T06:10:25;14.80;59.90
18712;DHT22;9485;49.386;8.674;2024-03-23T06:15:45;14.60;60.80
18712;DHT22;9485;49.386;8.674;2024-03-23T06:21:05;14.40;60.10
18712;DHT22;9485;49.386;8.674;2024-03-23T06:26:33;14.20;60.30
18712;DHT22;9485;49.386;8.674;2024-03-23T06:31:54;14.10;60.50
18712;DHT22;9485;49.386;8.674;2024-03-23T06:37:15;14.00;60.70
18712;DHT22;9485;49.386;8.674;2024-03-23T06:42:36;13.90;60.70
18712;DHT22;9485;49.386;8.674;2024-03-23T06:47:56;13.90;60.70
18712;DHT22;9485;49.386;8.674;2024-03-23T06:53:17;13.80;60.70
18712;DHT22;9485;49.386;8.674;2024-03-23T06:58:38;13.80;60.60
18712;DHT22;9485;49.386;8.674;2024-03-23T07:03:58;13.80;60.60
18712;DHT22;9485;49.386;8.674;2024-03-23T07:09:18;13.70;60.50
18712;DHT22;9485;49.386;8.674;2024-03-23T07:14:38;13.70;60.70
18712;DHT22;9485;49.386;8.674;2024-03-23T07:19:59;13.70;60.80
18712;DHT22;9485;49.386;8.674;2024-03-23T07:25:20;13.70;60.80
18712;DHT22;9485;49.386;8.674;2024-03-23T07:30:42;13.80;60.70
18712;DHT22;9485;49.386;8.674;2024-03-23T07:36:02;13.80;60.50
18712;DHT22;9485;49.386;8.674;2024-03-23T07:41:23;13.80;60.30
18712;DHT22;9485;49.386;8.674;2024-03-23T07:46:44;13.80;60.40
18712;DHT22;9485;49.386;8.674;2024-03-23T07:52:04;13.80;60.50
18712;DHT22;9485;49.386;8.674;2024-03-23T07:57:25;13.70;60.00
18712;DHT22;9485;49.386;8.674;2024-03-23T08:02:45;13.70;59.40
18712;DHT22;9485;49.386;8.674;2024-03-23T08:08:06;13.70;59.50
18712;DHT22;9485;49.386;8.674;2024-03-23T08:13:26;13.60;59.80
18712;DHT22;9485;49.386;8.674;2024-03-23T08:18:47;13.70;59.90
18712;DHT22;9485;49.386;8.674;2024-03-23T08:24:07;13.70;59.70
18712;DHT22;9485;49.386;8.674;2024-03-23T08:29:27;13.70;59.60
18712;DHT22;9485;49.386;8.674;2024-03-23T08:34:48;13.70;59.30
18712;DHT22;9485;49.386;8.674;2024-03-23T08:40:08;13.80;59.40
18712;DHT22;9485;49.386;8.674;2024-03-23T08:45:29;13.80;58.90
18712;DHT22;9485;49.386;8.674;2024-03-23T08:51:18;13.80;59.30
18712;DHT22;9485;49.386;8.674;2024-03-23T08:56:39;14.00;58.60
18712;DHT22;9485;49.386;8.674;2024-03-23T09:01:59;14.20;59.10
18712;DHT22;9485;49.386;8.674;2024-03-23T09:07:20;14.30;59.30
18712;DHT22;9485;49.386;8.674;2024-03-23T09:12:41;14.50;59.40
18712;DHT22;9485;49.386;8.674;2024-03-23T09:18:02;14.70;59.00
18712;DHT22;9485;49.386;8.674;2024-03-23T09:23:23;14.80;59.20
18712;DHT22;9485;49.386;8.674;2024-03-23T09:28:44;15.00;59.00
18712;DHT22;9485;49.386;8.674;2024-03-23T09:34:04;15.30;58.80
18712;DHT22;9485;49.386;8.674;2024-03-23T09:39:25;15.40;58.60
18712;DHT22;9485;49.386;8.674;2024-03-23T09:44:45;15.70;58.40
18712;DHT22;9485;49.386;8.674;2024-03-23T09:50:05;15.90;58.30
18712;DHT22;9485;49.386;8.674;2024-03-23T09:55:28;16.00;57.80
18712;DHT22;9485;49.386;8.674;2024-03-23T10:00:48;16.00;57.20
18712;DHT22;9485;49.386;8.674;2024-03-23T10:06:08;15.80;57.00
18712;DHT22;9485;49.386;8.674;2024-03-23T10:11:28;15.70;56.80
18712;DHT22;9485;49.386;8.674;2024-03-23T10:16:49;15.50;56.70
18712;DHT22;9485;49.386;8.674;2024-03-23T10:22:13;15.40;56.50
18712;DHT22;9485;49.386;8.674;2024-03-23T10:27:35;15.30;56.30
18712;DHT22;9485;49.386;8.674;2024-03-23T10:33:09;15.20;56.60
18712;DHT22;9485;49.386;8.674;2024-03-23T10:38:32;15.20;56.00
18712;DHT22;9485;49.386;8.674;2024-03-23T10:43:55;15.20;56.50
18712;DHT22;9485;49.386;8.674;2024-03-23T10:49:18;15.30;56.40
18712;DHT22;9485;49.386;8.674;2024-03-23T10:54:41;15.30;56.50
18712;DHT22;9485;49.386;8.674;2024-03-23T11:00:04;15.40;56.70
18712;DHT22;9485;49.386;8.674;2024-03-23T11:10:46;16.80;57.80
18712;DHT22;9485;49.386;8.674;2024-03-23T11:16:16;17.80;57.50
18712;DHT22;9485;49.386;8.674;2024-03-23T11:21:54;18.70;55.20
18712;DHT22;9485;49.386;8.674;2024-03-23T11:27:18;19.00;53.30
18712;DHT22;9485;49.386;8.674;2024-03-23T11:32:39;19.30;54.10
18712;DHT22;9485;49.386;8.674;2024-03-23T11:38:13;19.80;53.90
18712;DHT22;9485;49.386;8.674;2024-03-23T11:43:36;20.40;52.50
18712;DHT22;9485;49.386;8.674;2024-03-23T11:48:57;21.00;52.30
18712;DHT22;9485;49.386;8.674;2024-03-23T11:54:24;20.90;51.10
18712;DHT22;9485;49.386;8.674;2024-03-23T11:59:45;20.50;50.40
18712;DHT22;9485;49.386;8.674;2024-03-23T12:05:15;20.30;50.60
18712;DHT22;9485;49.386;8.674;2024-03-23T12:10:36;20.00;49.30
18712;DHT22;9485;49.386;8.674;2024-03-23T12:16:10;19.30;47.40
18712;DHT22;9485;49.386;8.674;2024-03-23T12:21:35;18.30;49.20
18712;DHT22;9485;49.386;8.674;2024-03-23T12:27:02;17.20;50.30
18712;DHT22;9485;49.386;8.674;2024-03-23T12:32:24;16.30;51.50
18712;DHT22;9485;49.386;8.674;2024-03-23T12:37:45;15.60;52.30
18712;DHT22;9485;49.386;8.674;2024-03-23T12:43:05;15.00;53.10
18712;DHT22;9485;49.386;8.674;2024-03-23T12:48:27;14.50;53.90
18712;DHT22;9485;49.386;8.674;2024-03-23T12:53:47;14.10;54.60
18712;DHT22;9485;49.386;8.674;2024-03-23T12:59:07;13.90;55.50
18712;DHT22;9485;49.386;8.674;2024-03-23T13:04:28;13.70;56.00
18712;DHT22;9485;49.386;8.674;2024-03-23T13:09:53;13.60;56.50
18712;DHT22;9485;49.386;8.674;2024-03-23T13:15:16;13.50;57.50
18712;DHT22;9485;49.386;8.674;2024-03-23T13:20:37;13.50;57.10
18712;DHT22;9485;49.386;8.674;2024-03-23T13:25:57;13.30;56.60
18712;DHT22;9485;49.386;8.674;2024-03-23T13:31:18;12.90;57.10
18712;DHT22;9485;49.386;8.674;2024-03-23T13:36:38;12.80;59.20
18712;DHT22;9485;49.386;8.674;2024-03-23T13:41:59;13.00;60.30
18712;DHT22;9485;49.386;8.674;2024-03-23T13:47:19;13.10;60.60
18712;DHT22;9485;49.386;8.674;2024-03-23T13:52:39;13.10;60.80
18712;DHT22;9485;49.386;8.674;2024-03-23T13:58:00;13.10;61.10
18712;DHT22;9485;49.386;8.674;2024-03-23T14:03:20;13.10;62.50
18712;DHT22;9485;49.386;8.674;2024-03-23T14:08:41;13.50;65.10
18712;DHT22;9485;49.386;8.674;2024-03-23T14:14:02;14.10;65.70
18712;DHT22;9485;49.386;8.674;2024-03-23T14:19:22;14.70;64.40
18712;DHT22;9485;49.386;8.674;2024-03-23T14:24:43;15.00;62.80
18712;DHT22;9485;49.386;8.674;2024-03-23T14:30:04;15.20;63.10
18712;DHT22;9485;49.386;8.674;2024-03-23T14:35:25;15.50;62.50
18712;DHT22;9485;49.386;8.674;2024-03-23T14:40:46;15.70;61.20
18712;DHT22;9485;49.386;8.674;2024-03-23T14:46:10;15.70;60.50
18712;DHT22;9485;49.386;8.674;2024-03-23T14:51:33;15.80;60.60
18712;DHT22;9485;49.386;8.674;2024-03-23T14:56:54;15.90;60.60
18712;DHT22;9485;49.386;8.674;2024-03-23T15:02:15;16.10;60.00
18712;DHT22;9485;49.386;8.674;2024-03-23T15:07:36;16.20;59.50
18712;DHT22;9485;49.386;8.674;2024-03-23T15:12:57;16.20;58.70
18712;DHT22;9485;49.386;8.674;2024-03-23T15:18:18;16.10;58.40
18712;DHT22;9485;49.386;8.674;2024-03-23T15:23:44;16.00;58.20
18712;DHT22;9485;49.386;8.674;2024-03-23T15:29:05;15.90;58.30
18712;DHT22;9485;49.386;8.674;2024-03-23T15:34:31;15.80;58.20
18712;DHT22;9485;49.386;8.674;2024-03-23T15:39:51;15.80;57.70
18712;DHT22;9485;49.386;8.674;2024-03-23T15:45:12;15.60;57.50
18712;DHT22;9485;49.386;8.674;2024-03-23T15:50:32;15.50;57.20
18712;DHT22;9485;49.386;8.674;2024-03-23T15:55:57;15.40;57.00
18712;DHT22;9485;49.386;8.674;2024-03-23T16:01:21;15.20;56.90
18712;DHT22;9485;49.386;8.674;2024-03-23T16:06:43;14.90;56.40
18712;DHT22;9485;49.386;8.674;2024-03-23T16:12:04;14.30;56.10
18712;DHT22;9485;49.386;8.674;2024-03-23T16:17:24;13.40;56.40
18712;DHT22;9485;49.386;8.674;2024-03-23T16:22:44;12.60;57.30
18712;DHT22;9485;49.386;8.674;2024-03-23T16:28:05;12.10;58.60
18712;DHT22;9485;49.386;8.674;2024-03-23T16:33:25;11.70;60.00
18712;DHT22;9485;49.386;8.674;2024-03-23T16:38:47;11.60;61.20
18712;DHT22;9485;49.386;8.674;2024-03-23T16:44:07;11.50;61.70
18712;DHT22;9485;49.386;8.674;2024-03-23T16:49:29;11.40;62.10
18712;DHT22;9485;49.386;8.674;2024-03-23T16:54:50;11.40;62.50
18712;DHT22;9485;49.386;8.674;2024-03-23T17:00:10;11.40;62.50
18712;DHT22;9485;49.386;8.674;2024-03-23T17:05:38;11.30;62.40
18712;DHT22;9485;49.386;8.674;2024-03-23T17:10:59;11.30;62.40
18712;DHT22;9485;49.386;8.674;2024-03-23T17:16:20;11.20;62.30
18712;DHT22;9485;49.386;8.674;2024-03-23T17:21:41;11.20;62.40
18712;DHT22;9485;49.386;8.674;2024-03-23T17:27:03;11.10;62.40
18712;DHT22;9485;49.386;8.674;2024-03-23T17:32:23;11.00;62.30
18712;DHT22;9485;49.386;8.674;2024-03-23T17:37:44;11.00;62.40
18712;DHT22;9485;49.386;8.674;2024-03-23T17:43:05;11.00;62.40
18712;DHT22;9485;49.386;8.674;2024-03-23T17:48:25;10.90;62.30
18712;DHT22;9485;49.386;8.674;2024-03-23T17:53:46;10.90;62.40
18712;DHT22;9485;49.386;8.674;2024-03-23T17:59:06;10.80;62.40
18712;DHT22;9485;49.386;8.674;2024-03-23T18:04:27;10.80;62.50
18712;DHT22;9485;49.386;8.674;2024-03-23T18:09:48;10.80;62.50
18712;DHT22;9485;49.386;8.674;2024-03-23T18:15:08;10.80;62.50
18712;DHT22;9485;49.386;8.674;2024-03-23T18:20:29;10.80;62.60
18712;DHT22;9485;49.386;8.674;2024-03-23T18:25:53;10.80;62.60
18712;DHT22;9485;49.386;8.674;2024-03-23T18:31:15;10.80;62.70
18712;DHT22;9485;49.386;8.674;2024-03-23T18:36:36;10.80;62.70
18712;DHT22;9485;49.386;8.674;2024-03-23T18:41:56;10.80;62.70
18712;DHT22;9485;49.386;8.674;2024-03-23T18:47:16;10.70;62.70
18712;DHT22;9485;49.386;8.674;2024-03-23T18:52:37;10.70;62.50
18712;DHT22;9485;49.386;8.674;2024-03-23T18:57:57;10.60;62.50
18712;DHT22;9485;49.386;8.674;2024-03-23T19:03:18;10.60;62.70
18712;DHT22;9485;49.386;8.674;2024-03-23T19:08:38;10.50;62.60
18712;DHT22;9485;49.386;8.674;2024-03-23T19:14:00;10.40;62.70
18712;DHT22;9485;49.386;8.674;2024-03-23T19:19:20;10.30;62.90
18712;DHT22;9485;49.386;8.674;2024-03-23T19:24:41;10.30;63.10
18712;DHT22;9485;49.386;8.674;2024-03-23T19:30:01;10.20;63.20
18712;DHT22;9485;49.386;8.674;2024-03-23T19:35:23;10.20;63.30
18712;DHT22;9485;49.386;8.674;2024-03-23T19:40:55;10.20;63.40
18712;DHT22;9485;49.386;8.674;2024-03-23T19:46:16;10.20;63.60
18712;DHT22;9485;49.386;8.674;2024-03-23T19:51:37;10.20;63.60
18712;DHT22;9485;49.386;8.674;2024-03-23T19:56:57;10.20;63.70
18712;DHT22;9485;49.386;8.674;2024-03-23T20:02:18;10.20;63.80
18712;DHT22;9485;49.386;8.674;2024-03-23T20:07:41;10.20;63.70
18712;DHT22;9485;49.386;8.674;2024-03-23T20:13:01;10.20;63.80
18712;DHT22;9485;49.386;8.674;2024-03-23T20:18:22;10.20;63.90
18712;DHT22;9485;49.386;8.674;2024-03-23T20:23:44;10.20;63.80
18712;DHT22;9485;49.386;8.674;2024-03-23T20:29:05;10.10;63.70
18712;DHT22;9485;49.386;8.674;2024-03-23T20:34:26;10.10;63.80
18712;DHT22;9485;49.386;8.674;2024-03-23T20:39:47;10.10;64.00
18712;DHT22;9485;49.386;8.674;2024-03-23T20:45:07;10.10;64.00
18712;DHT22;9485;49.386;8.674;2024-03-23T20:50:29;10.10;63.90
18712;DHT22;9485;49.386;8.674;2024-03-23T20:55:51;10.10;64.00
18712;DHT22;9485;49.386;8.674;2024-03-23T21:01:12;10.10;64.00
18712;DHT22;9485;49.386;8.674;2024-03-23T21:06:34;10.20;64.10
18712;DHT22;9485;49.386;8.674;2024-03-23T21:11:55;10.20;64.00
18712;DHT22;9485;49.386;8.674;2024-03-23T21:17:15;10.20;64.10
18712;DHT22;9485;49.386;8.674;2024-03-23T21:22:35;10.20;64.90
18712;DHT22;9485;49.386;8.674;2024-03-23T21:27:56;10.20;64.20
18712;DHT22;9485;49.386;8.674;2024-03-23T21:33:16;10.20;64.10
18712;DHT22;9485;49.386;8.674;2024-03-23T21:38:36;10.20;63.20
18712;DHT22;9485;49.386;8.674;2024-03-23T21:43:57;10.20;63.90
18712;DHT22;9485;49.386;8.674;2024-03-23T21:49:17;10.20;63.80
18712;DHT22;9485;49.386;8.674;2024-03-23T21:54:39;10.20;63.80
18712;DHT22;9485;49.386;8.674;2024-03-23T22:00:00;10.10;63.80
18712;DHT22;9485;49.386;8.674;2024-03-23T22:05:20;10.10;63.80
18712;DHT22;9485;49.386;8.674;2024-03-23T22:10:40;10.10;63.80
18712;DHT22;9485;49.386;8.674;2024-03-23T22:16:04;10.00;63.80
18712;DHT22;9485;49.386;8.674;2024-03-23T22:21:26;10.00;63.80
18712;DHT22;9485;49.386;8.674;2024-03-23T22:26:47;10.00;63.90
18712;DHT22;9485;49.386;8.674;2024-03-23T22:32:07;10.00;63.90
18712;DHT22;9485;49.386;8.674;2024-03-23T22:37:27;10.00;64.00
18712;DHT22;9485;49.386;8.674;2024-03-23T22:42:47;9.90;64.10
18712;DHT22;9485;49.386;8.674;2024-03-23T22:48:08;10.00;64.10
18712;DHT22;9485;49.386;8.674;2024-03-23T22:53:28;10.00;64.10
18712;DHT22;9485;49.386;8.674;2024-03-23T22:58:50;10.00;64.10
18712;DHT22;9485;49.386;8.674;2024-03-23T23:04:10;10.10;64.10
18712;DHT22;9485;49.386;8.674;2024-03-23T23:09:31;10.00;64.00
18712;DHT22;9485;49.386;8.674;2024-03-23T23:14:51;10.10;64.10
18712;DHT22;9485;49.386;8.674;2024-03-23T23:20:12;10.10;64.20
18712;DHT22;9485;49.386;8.674;2024-03-23T23:25:33;10.10;64.20
18712;DHT22;9485;49.386;8.674;2024-03-23T23:30:57;10.20;64.20
18712;DHT22;9485;49.386;8.674;2024-03-23T23:36:20;10.20;64.20
18712;DHT22;9485;49.386;8.674;2024-03-23T23:41:40;10.10;64.10
18712;DHT22;9485;49.386;8.674;2024-03-23T23:47:00;10.10;64.20
18712;DHT22;9485;49.386;8.674;2024-03-23T23:52:21;10.10;64.30
18712;DHT22;9485;49.386;8.674;2024-03-23T23:57:41;10.00;65.10
